Time;durP1;ratioP1;P1;durP2;ratioP2;P2;SDS_P1;SDS_P2;PMS_P1;PMS_P2;Temp;Humidity;BMP_temperature;BMP_pressure;BME280_temperature;BME280_humidity;BME280_pressure;Samples;Min_cycle;Max_cycle;Signal;HPM_P1;HPM_P2
2022/09/15 00:00:41;;;;;;;8.38;2.70;;;22.80;72.00;;;;;;5043724;28;20021;-59
2022/09/15 00:03:06;;;;;;;6.03;2.70;;;22.80;72.00;;;;;;5044533;28;20108;-58
2022/09/15 00:05:32;;;;;;;6.03;2.70;;;22.80;72.00;;;;;;5041962;28;20183;-59
2022/09/15 00:07:58;;;;;;;7.97;2.90;;;22.80;72.00;;;;;;5044433;28;20421;-59
2022/09/15 00:10:23;;;;;;;7.93;2.92;;;22.80;72.10;;;;;;5043488;28;20661;-59
2022/09/15 00:12:49;;;;;;;6.57;3.20;;;22.80;71.90;;;;;;5045110;28;20032;-58
2022/09/15 00:15:16;;;;;;;6.80;2.50;;;22.80;71.90;;;;;;5044760;28;20025;-59
2022/09/15 00:17:42;;;;;;;7.47;2.95;;;22.70;71.90;;;;;;5045593;28;20044;-59
2022/09/15 00:20:08;;;;;;;5.60;2.60;;;22.70;71.80;;;;;;5046238;28;20057;-59
2022/09/15 00:22:34;;;;;;;4.70;2.50;;;22.80;71.90;;;;;;5044590;28;20029;-58
2022/09/15 00:24:59;;;;;;;7.82;2.78;;;22.70;71.80;;;;;;5044523;28;20036;-59
2022/09/15 00:27:25;;;;;;;7.00;3.03;;;22.70;71.80;;;;;;5043543;28;20033;-58
2022/09/15 00:29:51;;;;;;;5.88;2.55;;;22.70;71.80;;;;;;5044632;28;20052;-58
2022/09/15 00:32:16;;;;;;;5.40;2.50;;;22.70;71.80;;;;;;5040679;28;20034;-59
2022/09/15 00:34:42;;;;;;;5.80;2.78;;;22.70;71.80;;;;;;5044420;28;20025;-58
2022/09/15 00:37:08;;;;;;;5.43;2.65;;;22.70;71.80;;;;;;5043876;28;20080;-59
2022/09/15 00:39:33;;;;;;;5.45;2.40;;;22.60;71.70;;;;;;5044376;28;20071;-59
2022/09/15 00:41:59;;;;;;;7.07;2.80;;;22.70;71.80;;;;;;5042980;28;20113;-59
2022/09/15 00:44:43;;;;;;;6.28;2.80;;;22.70;71.70;;;;;;5042795;28;20112;-59
2022/09/15 00:47:09;;;;;;;5.30;2.60;;;22.70;71.70;;;;;;5042465;28;20078;-58
2022/09/15 00:49:35;;;;;;;5.80;2.83;;;22.60;71.70;;;;;;5026286;28;20041;-59
2022/09/15 00:52:02;;;;;;;6.32;2.70;;;22.70;71.70;;;;;;5025308;28;20541;-58
2022/09/15 00:54:37;;;;;;;6.80;2.65;;;22.60;71.70;;;;;;5025267;28;20467;-58
2022/09/15 00:57:07;;;;;;;5.28;2.60;;;22.60;71.60;;;;;;5024833;28;20029;-58
2022/09/15 00:59:35;;;;;;;6.72;2.90;;;22.60;71.60;;;;;;5023357;28;20035;-58
2022/09/15 01:02:15;;;;;;;5.47;2.80;;;22.60;71.60;;;;;;5044145;28;20053;-59
2022/09/15 01:04:41;;;;;;;7.03;2.70;;;22.60;71.60;;;;;;5023654;28;20474;-58
2022/09/15 01:07:08;;;;;;;6.97;2.85;;;22.60;71.60;;;;;;5026253;28;20048;-59
2022/09/15 01:09:36;;;;;;;7.95;3.00;;;22.60;71.60;;;;;;5027368;28;20037;-59
2022/09/15 01:12:02;;;;;;;7.00;2.92;;;22.60;71.50;;;;;;5024775;28;20470;-59
2022/09/15 01:14:28;;;;;;;5.25;2.90;;;22.60;71.60;;;;;;5041967;28;20025;-58
2022/09/15 01:17:11;;;;;;;5.10;2.75;;;22.50;71.40;;;;;;5040976;28;20118;-58
2022/09/15 01:19:52;;;;;;;5.65;2.55;;;22.50;71.40;;;;;;5012997;28;20500;-58
2022/09/15 01:22:40;;;;;;;5.38;2.67;;;22.50;71.40;;;;;;5043676;28;20025;-58
2022/09/15 01:25:30;;;;;;;5.85;2.47;;;22.50;71.30;;;;;;5044307;28;20032;-58
2022/09/15 01:28:05;;;;;;;4.88;2.55;;;22.50;71.40;;;;;;5040559;28;20120;-58
2022/09/15 01:30:38;;;;;;;6.85;2.72;;;22.50;71.30;;;;;;5043305;28;20100;-59
2022/09/15 01:33:44;;;;;;;4.97;2.58;;;22.50;71.20;;;;;;5026632;28;20447;-59
2022/09/15 01:36:20;;;;;;;;;;;22.50;71.20;;;;;;5049778;28;20040;-59
2022/09/15 01:39:04;;;;;;;4.60;2.38;;;22.50;71.20;;;;;;5023195;28;19921;-58
2022/09/15 01:41:42;;;;;;;6.60;2.80;;;22.50;71.20;;;;;;5043264;28;20021;-58
2022/09/15 01:44:35;;;;;;;6.13;2.42;;;22.50;71.20;;;;;;5022325;28;20057;-58
2022/09/15 01:47:03;;;;;;;6.65;2.50;;;22.50;71.20;;;;;;5038516;28;20394;-58
2022/09/15 01:49:33;;;;;;;5.03;2.40;;;22.50;71.20;;;;;;5027420;28;20040;-59
2022/09/15 01:51:59;;;;;;;6.22;2.35;;;22.50;71.10;;;;;;5022182;28;20021;-58
2022/09/15 01:54:29;;;;;;;5.80;2.58;;;22.40;71.00;;;;;;5024851;28;20037;-58
2022/09/15 01:56:55;;;;;;;4.18;2.22;;;22.40;71.00;;;;;;5025618;28;20123;-58
2022/09/15 01:59:21;;;;;;;5.35;2.22;;;22.40;71.00;;;;;;5038918;28;20025;-58
2022/09/15 02:01:56;;;;;;;5.47;2.30;;;22.40;71.00;;;;;;5043451;28;20037;-58
2022/09/15 02:04:47;;;;;;;6.10;2.30;;;22.40;71.10;;;;;;5027249;28;20580;-58
2022/09/15 02:07:19;;;;;;;4.70;2.03;;;22.40;71.00;;;;;;5024503;28;20068;-58
2022/09/15 02:09:53;;;;;;;3.33;2.20;;;22.40;71.00;;;;;;5043639;28;20052;-58
2022/09/15 02:12:28;;;;;;;4.28;2.00;;;22.30;70.90;;;;;;5023888;28;20032;-58
2022/09/15 02:15:02;;;;;;;5.15;2.50;;;22.40;71.00;;;;;;5041049;28;20535;-58
2022/09/15 02:17:28;;;;;;;3.72;2.20;;;22.40;71.00;;;;;;5026721;28;20644;-59
2022/09/15 02:20:04;;;;;;;3.90;2.00;;;22.30;70.90;;;;;;5025178;28;20037;-58
2022/09/15 02:22:31;;;;;;;4.05;2.30;;;22.40;70.90;;;;;;5011096;28;20021;-58
2022/09/15 02:25:07;;;;;;;3.60;1.90;;;22.30;70.90;;;;;;5024017;28;20065;-58
2022/09/15 02:27:39;;;;;;;3.60;2.20;;;22.30;70.90;;;;;;5041538;28;20029;-58
2022/09/15 02:30:08;;;;;;;5.38;2.10;;;22.30;70.80;;;;;;5010901;28;20120;-58
2022/09/15 02:32:34;;;;;;;3.65;1.90;;;22.30;70.80;;;;;;5026850;28;20036;-58
2022/09/15 02:35:05;;;;;;;7.07;2.13;;;22.30;70.90;;;;;;5026723;28;20439;-58
2022/09/15 02:37:31;;;;;;;4.88;2.00;;;22.30;70.90;;;;;;5024687;28;20075;-58
2022/09/15 02:39:56;;;;;;;4.25;2.00;;;22.30;70.80;;;;;;5023263;28;20572;-58
2022/09/15 02:42:26;;;;;;;4.97;2.00;;;22.20;70.80;;;;;;5043082;28;20043;-58
2022/09/15 02:44:52;;;;;;;4.78;1.98;;;22.30;70.80;;;;;;5039611;28;20021;-58
2022/09/15 02:47:18;;;;;;;4.47;1.90;;;22.30;70.80;;;;;;5044357;28;20094;-58
2022/09/15 02:49:44;;;;;;;5.32;2.00;;;22.30;70.80;;;;;;5043953;28;20024;-58
2022/09/15 02:52:09;;;;;;;4.95;2.05;;;22.30;70.80;;;;;;5046382;28;20040;-58
2022/09/15 02:54:35;;;;;;;4.28;2.03;;;22.20;70.80;;;;;;5044029;28;20025;-58
2022/09/15 02:57:00;;;;;;;4.45;2.10;;;22.20;70.80;;;;;;5045459;28;20048;-58
2022/09/15 03:00:11;;;;;;;4.32;1.92;;;22.20;70.80;;;;;;5046199;28;20067;-59
2022/09/15 03:02:12;;;;;;;4.63;2.10;;;22.20;70.80;;;;;;5043515;28;20033;-58
2022/09/15 03:04:38;;;;;;;3.13;1.85;;;22.20;70.80;;;;;;5044652;28;20592;-58
2022/09/15 03:07:04;;;;;;;5.15;2.08;;;22.20;70.80;;;;;;5043214;28;20032;-58
2022/09/15 03:09:29;;;;;;;3.83;2.03;;;22.20;70.70;;;;;;5045767;28;20444;-58
2022/09/15 03:11:55;;;;;;;4.22;1.75;;;22.20;70.70;;;;;;5027481;28;20025;-58
2022/09/15 03:14:21;;;;;;;3.83;1.80;;;22.20;70.80;;;;;;5029379;28;20056;-58
2022/09/15 03:16:46;;;;;;;4.72;1.75;;;22.20;70.70;;;;;;5044708;28;20041;-58
2022/09/15 03:19:12;;;;;;;5.80;2.20;;;22.20;70.80;;;;;;5044705;28;20496;-58
2022/09/15 03:21:38;;;;;;;4.60;1.90;;;22.20;70.80;;;;;;5043147;28;20394;-58
2022/09/15 03:24:03;;;;;;;4.43;2.00;;;22.10;70.70;;;;;;5045492;28;20116;-58
2022/09/15 03:26:29;;;;;;;5.05;1.88;;;22.10;70.70;;;;;;5046553;28;20038;-58
2022/09/15 03:28:56;;;;;;;2.75;1.65;;;22.10;70.70;;;;;;5043119;28;20025;-58
2022/09/15 03:31:21;;;;;;;5.00;1.80;;;22.20;70.90;;;;;;5047695;28;20094;-58
2022/09/15 03:33:47;;;;;;;4.15;1.60;;;22.10;70.70;;;;;;5043800;28;20037;-58
2022/09/15 03:36:13;;;;;;;3.42;1.77;;;22.10;70.70;;;;;;5042847;28;20029;-58
2022/09/15 03:38:38;;;;;;;3.13;1.80;;;22.10;70.70;;;;;;5045685;28;20043;-58
2022/09/15 03:41:09;;;;;;;3.28;1.70;;;22.10;70.60;;;;;;5046111;28;20021;-58
2022/09/15 03:43:35;;;;;;;3.47;1.90;;;22.10;70.70;;;;;;5046631;28;20029;-58
2022/09/15 03:46:01;;;;;;;3.63;1.75;;;22.10;70.70;;;;;;5045062;28;20070;-58
2022/09/15 03:48:27;;;;;;;4.55;1.80;;;22.10;70.70;;;;;;5046746;28;20047;-58
2022/09/15 03:50:52;;;;;;;3.45;1.80;;;22.10;70.70;;;;;;5043174;28;20032;-58
2022/09/15 03:53:19;;;;;;;5.35;1.90;;;22.10;70.70;;;;;;5043050;28;20029;-58
2022/09/15 03:55:45;;;;;;;4.50;1.90;;;22.10;70.60;;;;;;5043134;28;20092;-58
2022/09/15 03:58:11;;;;;;;4.53;1.90;;;22.10;70.70;;;;;;5043820;28;20036;-58
2022/09/15 04:00:37;;;;;;;3.08;1.60;;;22.10;70.70;;;;;;5008365;28;20021;-58
2022/09/15 04:03:03;;;;;;;3.13;1.70;;;22.10;70.70;;;;;;5043307;28;20033;-59
2022/09/15 04:05:28;;;;;;;3.45;1.70;;;22.00;70.60;;;;;;5044709;28;20047;-58
2022/09/15 04:07:54;;;;;;;5.05;1.90;;;22.10;70.70;;;;;;5046615;28;20086;-58
2022/09/15 04:10:22;;;;;;;3.58;1.80;;;22.10;70.60;;;;;;5042937;28;20033;-58
2022/09/15 04:12:51;;;;;;;4.28;1.80;;;22.10;70.60;;;;;;5047124;28;20037;-58
2022/09/15 04:15:18;;;;;;;4.95;1.83;;;22.00;70.60;;;;;;5027655;28;20082;-58
2022/09/15 04:17:44;;;;;;;3.63;1.92;;;22.00;70.60;;;;;;5027459;28;20052;-59
2022/09/15 04:20:09;;;;;;;4.63;1.92;;;22.00;70.60;;;;;;5043317;28;20052;-58
2022/09/15 04:22:35;;;;;;;3.67;1.75;;;22.00;70.60;;;;;;5043988;28;20052;-58
2022/09/15 04:25:01;;;;;;;5.00;1.77;;;22.00;70.60;;;;;;5041051;28;20114;-58
2022/09/15 04:27:27;;;;;;;6.35;1.80;;;22.00;70.60;;;;;;5046502;28;20033;-59
2022/09/15 04:29:53;;;;;;;4.70;1.75;;;22.00;70.60;;;;;;5038422;28;20029;-58
2022/09/15 04:32:19;;;;;;;3.38;1.70;;;22.00;70.60;;;;;;5041504;28;20021;-59
2022/09/15 04:34:45;;;;;;;3.97;1.67;;;22.00;70.60;;;;;;5043121;28;20550;-58
2022/09/15 04:37:13;;;;;;;5.32;1.92;;;22.00;70.60;;;;;;5044048;28;20041;-59
2022/09/15 04:39:39;;;;;;;3.70;1.80;;;22.00;70.60;;;;;;5037905;28;20035;-58
2022/09/15 04:42:06;;;;;;;4.80;1.85;;;22.00;70.60;;;;;;5042887;28;20112;-59
2022/09/15 04:44:32;;;;;;;2.97;1.65;;;21.90;70.50;;;;;;5046038;28;20037;-58
2022/09/15 04:46:58;;;;;;;5.13;1.88;;;22.00;70.60;;;;;;5045563;28;20489;-58
2022/09/15 04:49:23;;;;;;;3.97;1.70;;;21.90;70.50;;;;;;5043171;28;20409;-58
2022/09/15 04:51:52;;;;;;;3.38;1.73;;;21.90;70.60;;;;;;5039926;28;20413;-59
2022/09/15 04:54:17;;;;;;;4.70;1.63;;;21.90;70.50;;;;;;5042666;28;20053;-58
2022/09/15 04:56:44;;;;;;;4.10;1.80;;;21.90;70.50;;;;;;5043002;28;20052;-58
2022/09/15 04:59:15;;;;;;;3.85;1.77;;;21.90;70.50;;;;;;5045224;28;20036;-58
2022/09/15 05:01:41;;;;;;;3.83;1.83;;;21.90;70.60;;;;;;5041854;28;20021;-58
2022/09/15 05:04:07;;;;;;;3.60;1.83;;;21.90;70.60;;;;;;5042844;28;20060;-58
2022/09/15 05:06:34;;;;;;;3.67;1.75;;;21.90;70.50;;;;;;5041363;28;20032;-58
2022/09/15 05:09:00;;;;;;;4.10;1.70;;;21.90;70.50;;;;;;5025155;28;20032;-58
2022/09/15 05:11:27;;;;;;;4.90;1.88;;;21.90;70.50;;;;;;5040943;28;20528;-58
2022/09/15 05:13:53;;;;;;;3.88;1.85;;;22.00;70.70;;;;;;5045079;28;20048;-60
2022/09/15 05:16:20;;;;;;;6.03;1.90;;;21.90;70.60;;;;;;5047908;28;20434;-58
2022/09/15 05:18:47;;;;;;;4.85;1.80;;;21.90;70.70;;;;;;5042789;28;20037;-58
2022/09/15 05:21:13;;;;;;;5.82;1.92;;;21.90;71.80;;;;;;5040467;28;20147;-58
2022/09/15 05:23:39;;;;;;;5.90;2.03;;;21.90;70.90;;;;;;5047125;28;20102;-58
2022/09/15 05:26:06;;;;;;;6.13;2.20;;;21.90;70.90;;;;;;5046421;28;20448;-58
2022/09/15 05:28:32;;;;;;;4.70;1.75;;;21.90;71.00;;;;;;5043923;28;20397;-58
2022/09/15 05:30:58;;;;;;;5.93;1.95;;;21.90;71.00;;;;;;5043330;28;20024;-58
2022/09/15 05:33:24;;;;;;;8.05;1.90;;;21.90;71.00;;;;;;5044600;28;20025;-58
2022/09/15 05:35:51;;;;;;;6.80;2.00;;;21.90;71.10;;;;;;5023357;28;20030;-58
2022/09/15 05:38:17;;;;;;;6.90;1.90;;;22.00;71.00;;;;;;5041719;28;20036;-58
2022/09/15 05:40:42;;;;;;;5.50;1.75;;;21.90;71.00;;;;;;5036375;28;20043;-58
2022/09/15 05:43:08;;;;;;;6.72;2.30;;;21.90;71.10;;;;;;5043215;28;20048;-59
2022/09/15 05:45:34;;;;;;;6.45;2.10;;;21.90;71.00;;;;;;5039833;28;20025;-59
2022/09/15 05:47:59;;;;;;;5.90;1.80;;;22.00;70.90;;;;;;5044271;28;20036;-59
2022/09/15 05:50:25;;;;;;;6.60;2.08;;;22.00;70.90;;;;;;5040746;28;20029;-58
2022/09/15 05:52:51;;;;;;;6.97;2.10;;;22.00;71.00;;;;;;5041326;28;20032;-59
2022/09/15 05:55:17;;;;;;;5.93;1.80;;;22.00;70.80;;;;;;5042830;28;20041;-59
2022/09/15 05:57:43;;;;;;;7.18;2.20;;;22.00;70.80;;;;;;5041863;28;20331;-59
2022/09/15 06:00:10;;;;;;;3.97;1.75;;;22.00;70.80;;;;;;5041673;28;20037;-59
2022/09/15 06:02:35;;;;;;;5.13;1.75;;;22.00;70.90;;;;;;5040381;28;20096;-59
2022/09/15 06:05:02;;;;;;;4.25;1.90;;;22.00;70.70;;;;;;5041900;28;20021;-59
2022/09/15 06:07:28;;;;;;;8.20;2.08;;;22.00;70.80;;;;;;5041481;28;20131;-59
2022/09/15 06:09:54;;;;;;;5.10;2.10;;;22.00;70.80;;;;;;5041571;28;20017;-59
2022/09/15 06:12:20;;;;;;;6.40;1.83;;;22.00;70.80;;;;;;5042679;28;20037;-59
2022/09/15 06:14:49;;;;;;;5.82;2.00;;;22.00;70.70;;;;;;5041998;28;20503;-59
2022/09/15 06:17:15;;;;;;;4.93;1.80;;;22.00;70.70;;;;;;5040462;28;20045;-59
2022/09/15 06:19:41;;;;;;;5.38;2.00;;;22.00;70.70;;;;;;5040619;28;20065;-59
2022/09/15 06:22:07;;;;;;;7.18;2.15;;;22.00;70.70;;;;;;5043514;28;20061;-58
2022/09/15 06:24:32;;;;;;;7.32;2.00;;;22.00;70.70;;;;;;5046725;28;20071;-59
2022/09/15 06:26:58;;;;;;;7.18;2.00;;;22.00;70.60;;;;;;5047215;28;20033;-59
2022/09/15 06:29:24;;;;;;;6.93;1.92;;;21.90;70.60;;;;;;5049538;28;20108;-58
2022/09/15 06:31:50;;;;;;;7.63;2.25;;;21.90;70.50;;;;;;5049495;28;20104;-59
2022/09/15 06:34:16;;;;;;;4.47;1.83;;;22.00;70.60;;;;;;5052182;28;20075;-59
2022/09/15 06:36:42;;;;;;;5.95;2.00;;;22.00;70.60;;;;;;5050700;28;20052;-58
2022/09/15 06:39:08;;;;;;;4.68;1.83;;;21.90;70.50;;;;;;5047242;28;20018;-59
2022/09/15 06:41:34;;;;;;;6.35;2.05;;;21.90;70.60;;;;;;5048076;28;20386;-59
2022/09/15 06:43:59;;;;;;;5.18;1.92;;;21.90;70.50;;;;;;5048200;28;20638;-59
2022/09/15 06:46:25;;;;;;;5.53;2.00;;;21.90;70.50;;;;;;5046057;28;20033;-59
2022/09/15 06:48:52;;;;;;;6.60;1.90;;;21.90;70.50;;;;;;5047760;28;20112;-59
2022/09/15 06:51:22;;;;;;;6.82;2.08;;;21.90;70.40;;;;;;5047489;28;20021;-59
2022/09/15 06:53:48;;;;;;;4.80;1.98;;;21.90;70.40;;;;;;5045797;28;20043;-58
2022/09/15 06:56:16;;;;;;;7.00;1.88;;;21.90;70.40;;;;;;5047135;28;20033;-58
2022/09/15 06:58:41;;;;;;;5.97;1.98;;;21.90;70.40;;;;;;5025336;28;20044;-58
2022/09/15 07:01:12;;;;;;;5.97;2.10;;;21.90;70.40;;;;;;5048224;28;20029;-58
2022/09/15 07:03:38;;;;;;;8.02;1.90;;;21.90;70.40;;;;;;5045433;28;20048;-59
2022/09/15 07:06:04;;;;;;;5.10;1.70;;;21.90;70.30;;;;;;5050598;28;20025;-59
2022/09/15 07:08:30;;;;;;;6.45;1.75;;;21.90;70.30;;;;;;5050950;28;20497;-59
2022/09/15 07:10:56;;;;;;;5.22;2.00;;;21.90;70.20;;;;;;5049544;28;20051;-59
2022/09/15 07:13:22;;;;;;;6.40;1.70;;;21.90;70.30;;;;;;5048372;28;20100;-59
2022/09/15 07:15:55;;;;;;;4.90;1.80;;;22.00;70.40;;;;;;5049120;28;20029;-59
2022/09/15 07:18:21;;;;;;;5.15;1.85;;;21.90;70.50;;;;;;5049929;28;20502;-59
2022/09/15 07:20:47;;;;;;;6.68;1.77;;;21.90;70.50;;;;;;5046100;28;20068;-59
2022/09/15 07:23:13;;;;;;;6.40;2.00;;;21.90;70.40;;;;;;5030540;28;20028;-59
2022/09/15 07:25:42;;;;;;;5.32;1.80;;;22.00;70.50;;;;;;5045635;28;20419;-59
2022/09/15 07:28:09;;;;;;;4.18;1.70;;;22.00;70.50;;;;;;5047503;28;20029;-59
2022/09/15 07:30:35;;;;;;;7.80;2.17;;;21.90;70.50;;;;;;5049344;28;20029;-59
2022/09/15 07:33:00;;;;;;;5.75;1.63;;;22.00;70.50;;;;;;5047049;28;20378;-59
2022/09/15 07:35:26;;;;;;;4.85;1.85;;;22.00;70.50;;;;;;5046253;28;20832;-59
2022/09/15 07:37:52;;;;;;;6.53;2.25;;;22.00;70.50;;;;;;5029223;28;20459;-59
2022/09/15 07:40:18;;;;;;;7.80;1.83;;;22.00;70.60;;;;;;5044378;28;20386;-59
2022/09/15 07:42:43;;;;;;;5.88;2.08;;;22.00;70.50;;;;;;5048086;28;20101;-59
2022/09/15 07:45:12;;;;;;;7.43;2.17;;;22.00;70.40;;;;;;5045113;28;20489;-59
2022/09/15 07:47:38;;;;;;;4.47;1.75;;;22.00;70.30;;;;;;5044147;28;20106;-59
2022/09/15 07:50:05;;;;;;;5.93;2.10;;;22.00;70.20;;;;;;5040050;28;20431;-59
2022/09/15 07:52:30;;;;;;;6.88;2.20;;;22.00;70.10;;;;;;5045811;28;20061;-59
2022/09/15 07:54:56;;;;;;;5.60;2.05;;;22.00;70.30;;;;;;5044672;28;20509;-59
2022/09/15 07:57:22;;;;;;;6.07;1.90;;;22.00;70.20;;;;;;5045832;28;20124;-59
2022/09/15 07:59:47;;;;;;;4.40;1.92;;;22.00;70.20;;;;;;5043171;28;20043;-59
2022/09/15 08:02:18;;;;;;;6.18;2.05;;;22.00;70.20;;;;;;5044554;28;20068;-59
2022/09/15 08:04:43;;;;;;;6.22;1.88;;;22.00;70.20;;;;;;5042746;28;20385;-59
2022/09/15 08:07:09;;;;;;;4.57;1.63;;;22.00;70.20;;;;;;5025771;28;20031;-59
2022/09/15 08:09:39;;;;;;;5.93;2.20;;;22.00;70.20;;;;;;5026340;28;20996;-59
2022/09/15 08:12:05;;;;;;;5.00;1.83;;;22.00;70.20;;;;;;5043893;28;20025;-59
2022/09/15 08:14:31;;;;;;;4.78;1.98;;;22.00;70.20;;;;;;5043902;28;20762;-59
2022/09/15 08:17:01;;;;;;;4.38;1.92;;;22.00;70.20;;;;;;5040305;28;20928;-59
2022/09/15 08:19:27;;;;;;;6.07;2.15;;;21.90;70.10;;;;;;5044979;28;20056;-59
2022/09/15 08:21:53;;;;;;;6.50;2.10;;;22.00;70.20;;;;;;5046764;28;20116;-59
2022/09/15 08:24:19;;;;;;;4.88;2.10;;;21.90;70.20;;;;;;5043582;28;20032;-59
2022/09/15 08:26:45;;;;;;;5.90;1.95;;;22.00;70.20;;;;;;5042057;28;20044;-58
2022/09/15 08:29:12;;;;;;;5.57;1.98;;;22.00;70.20;;;;;;5044011;28;20033;-59
2022/09/15 08:31:39;;;;;;;5.05;2.08;;;21.90;70.10;;;;;;5042203;28;20029;-59
2022/09/15 08:34:05;;;;;;;6.57;2.00;;;22.00;70.10;;;;;;5047202;28;20029;-59
2022/09/15 08:36:34;;;;;;;6.85;2.10;;;22.00;70.10;;;;;;5043015;28;20041;-59
2022/09/15 08:39:00;;;;;;;5.25;1.92;;;22.00;70.10;;;;;;5043839;28;20026;-59
2022/09/15 08:41:36;;;;;;;5.75;2.08;;;22.00;70.20;;;;;;5044660;28;20417;-59
2022/09/15 08:44:39;;;;;;;5.72;1.90;;;22.00;70.00;;;;;;5025466;28;20032;-59
2022/09/15 08:47:14;;;;;;;5.03;2.00;;;21.90;70.00;;;;;;5024890;28;20025;-59
2022/09/15 08:49:41;;;;;;;;;;;21.90;70.00;;;;;;5044882;28;20129;-59
2022/09/15 08:52:18;;;;;;;5.22;2.13;;;21.90;70.10;;;;;;5026196;28;20135;-59
2022/09/15 08:54:43;;;;;;;5.65;2.10;;;22.00;70.10;;;;;;5022506;28;20026;-59
2022/09/15 08:57:12;;;;;;;4.57;2.00;;;21.90;70.00;;;;;;5043734;28;20036;-59
2022/09/15 08:59:38;;;;;;;6.13;2.42;;;22.00;70.10;;;;;;5025646;28;20111;-59
2022/09/15 09:02:25;;;;;;;7.43;2.20;;;21.90;70.00;;;;;;5042600;28;20021;-58
2022/09/15 09:04:58;;;;;;;6.85;2.30;;;21.90;70.00;;;;;;5043394;28;20042;-59
2022/09/15 09:07:54;;;;;;;7.30;2.30;;;21.90;70.00;;;;;;5038824;28;20041;-59
2022/09/15 09:10:43;;;;;;;6.40;2.22;;;21.90;70.00;;;;;;5044980;28;20044;-59
2022/09/15 09:13:39;;;;;;;6.35;2.42;;;21.90;70.00;;;;;;5033742;28;20132;-59
2022/09/15 09:16:33;;;;;;;6.45;1.98;;;21.90;70.00;;;;;;5027598;28;20037;-59
2022/09/15 09:19:34;;;;;;;4.95;1.70;;;21.90;70.00;;;;;;5041709;28;20055;-59
2022/09/15 09:22:06;;;;;;;4.47;1.88;;;21.90;69.90;;;;;;5040422;28;20108;-59
2022/09/15 09:24:38;;;;;;;4.53;1.98;;;21.90;69.90;;;;;;5043211;28;20025;-59
2022/09/15 09:27:03;;;;;;;5.65;2.10;;;21.90;69.90;;;;;;5022472;28;20048;-59
2022/09/15 09:29:48;;;;;;;4.70;2.13;;;21.90;69.90;;;;;;5040500;28;20029;-59
2022/09/15 09:32:23;;;;;;;4.90;2.08;;;21.90;70.00;;;;;;5029770;28;20127;-59
2022/09/15 09:35:14;;;;;;;5.63;2.00;;;21.90;69.90;;;;;;5041757;28;20469;-58
2022/09/15 09:37:40;;;;;;;5.60;2.20;;;21.90;69.90;;;;;;4985586;28;20457;-59
2022/09/15 09:40:08;;;;;;;5.07;2.15;;;21.90;69.90;;;;;;4984350;28;20065;-59
2022/09/15 09:42:36;;;;;;;5.80;2.25;;;21.90;69.80;;;;;;4985142;28;20053;-59
2022/09/15 09:45:03;;;;;;;4.97;2.00;;;21.90;69.90;;;;;;4983898;28;20522;-59
2022/09/15 09:47:28;;;;;;;5.38;1.92;;;21.90;69.90;;;;;;4983609;28;20094;-59
2022/09/15 09:49:54;;;;;;;7.43;2.50;;;21.90;69.90;;;;;;4982784;28;20030;-59
2022/09/15 09:52:40;;;;;;;6.45;2.35;;;21.90;69.90;;;;;;4967416;28;20038;-59
2022/09/15 09:55:18;;;;;;;5.97;2.33;;;21.90;69.90;;;;;;4982930;28;20042;-59
2022/09/15 09:57:43;;;;;;;5.70;2.08;;;21.90;69.80;;;;;;4981222;28;20034;-59
2022/09/15 10:00:39;;;;;;;7.40;2.70;;;21.90;69.80;;;;;;4982309;28;20045;-59
2022/09/15 10:03:25;;;;;;;;;;;21.90;69.60;;;;;;4974764;28;20121;-59
2022/09/15 10:06:06;;;;;;;7.43;2.63;;;21.90;69.60;;;;;;4983260;28;19921;-59
2022/09/15 10:08:32;;;;;;;7.47;2.40;;;21.90;69.40;;;;;;4983676;28;20054;-59
2022/09/15 10:11:05;;;;;;;8.48;2.65;;;21.90;69.40;;;;;;4966235;28;20568;-59
2022/09/15 10:13:33;;;;;;;6.75;2.45;;;22.00;69.30;;;;;;4984722;28;20030;-58
2022/09/15 10:16:00;;;;;;;5.63;2.55;;;22.00;69.20;;;;;;5024756;28;20021;-58
2022/09/15 10:18:36;;;;;;;7.15;2.70;;;22.00;69.10;;;;;;5042017;28;20410;-59
2022/09/15 10:21:03;;;;;;;7.20;2.35;;;22.00;68.90;;;;;;5041093;28;20550;-59
2022/09/15 10:23:30;;;;;;;7.38;2.53;;;22.00;68.80;;;;;;5021431;28;20104;-59
2022/09/15 10:26:16;;;;;;;5.43;2.40;;;22.00;68.80;;;;;;5042371;28;20509;-58
2022/09/15 10:28:43;;;;;;;6.03;2.17;;;22.00;68.60;;;;;;5042069;28;20025;-59
2022/09/15 10:31:09;;;;;;;7.15;2.30;;;22.00;68.40;;;;;;5041651;28;20485;-59
2022/09/15 10:33:36;;;;;;;5.95;2.35;;;22.00;68.40;;;;;;5041588;28;20036;-59
2022/09/15 10:36:10;;;;;;;6.93;2.28;;;22.00;68.30;;;;;;5025148;28;20017;-59
2022/09/15 10:38:45;;;;;;;4.72;2.17;;;22.00;68.50;;;;;;5006969;28;20061;-58
2022/09/15 10:41:21;;;;;;;7.25;2.25;;;22.00;68.50;;;;;;5022820;28;20035;-59
2022/09/15 10:44:05;;;;;;;5.32;2.28;;;22.00;68.60;;;;;;5025132;28;20036;-59
2022/09/15 10:46:43;;;;;;;7.35;2.30;;;22.10;68.40;;;;;;5042771;28;20021;-59
2022/09/15 10:49:21;;;;;;;6.63;2.15;;;22.00;68.20;;;;;;5040292;28;20022;-59
2022/09/15 10:52:05;;;;;;;5.22;2.38;;;22.00;68.00;;;;;;5040436;28;20803;-59
2022/09/15 10:54:34;;;;;;;7.80;2.30;;;22.10;67.80;;;;;;5040595;28;20124;-59
2022/09/15 10:57:11;;;;;;;9.40;2.25;;;22.10;67.60;;;;;;5039834;28;20033;-59
2022/09/15 10:59:44;;;;;;;8.15;2.22;;;22.10;67.40;;;;;;5039887;28;20029;-59
2022/09/15 11:02:22;;;;;;;9.13;2.38;;;22.10;67.70;;;;;;5025274;28;20573;-59
2022/09/15 11:05:06;;;;;;;6.03;2.30;;;22.10;67.80;;;;;;5040909;28;20485;-59
2022/09/15 11:08:14;;;;;;;5.07;2.13;;;22.10;67.50;;;;;;5041682;28;20079;-58
2022/09/15 11:11:02;;;;;;;6.78;2.40;;;22.10;67.30;;;;;;4982890;28;20282;-59
2022/09/15 11:13:41;;;;;;;6.40;2.30;;;22.20;67.50;;;;;;4981203;28;20051;-59
2022/09/15 11:16:19;;;;;;;6.25;2.05;;;22.20;67.60;;;;;;4985057;28;20774;-59
2022/09/15 11:18:50;;;;;;;5.13;1.92;;;22.20;67.50;;;;;;4986861;28;20031;-59
2022/09/15 11:21:38;;;;;;;6.03;2.10;;;22.20;67.50;;;;;;4986245;28;20031;-59
2022/09/15 11:24:27;;;;;;;7.95;2.30;;;22.20;67.30;;;;;;4985325;28;20526;-59
2022/09/15 11:27:00;;;;;;;6.30;2.30;;;22.30;67.30;;;;;;4998483;28;20038;-59
2022/09/15 11:30:13;;;;;;;7.35;2.20;;;22.30;67.00;;;;;;4986106;28;20080;-59
2022/09/15 11:33:14;;;;;;;8.10;2.33;;;22.40;66.90;;;;;;4982548;28;20038;-59
2022/09/15 11:36:40;;;;;;;6.47;2.05;;;22.40;66.90;;;;;;4984387;28;20034;-59
2022/09/15 11:39:09;;;;;;;6.47;2.05;;;22.40;66.50;;;;;;4942095;29;20091;-59
2022/09/15 11:42:06;;;;;;;6.45;2.30;;;22.40;66.50;;;;;;4946961;29;20075;-59
2022/09/15 11:44:32;;;;;;;7.68;2.42;;;22.50;66.40;;;;;;4943713;29;20054;-59
2022/09/15 11:47:15;;;;;;;7.68;2.00;;;22.50;66.40;;;;;;4954083;28;20037;-59
2022/09/15 11:49:44;;;;;;;6.22;2.17;;;22.50;66.10;;;;;;4983338;28;20048;-59
2022/09/15 11:52:17;;;;;;;8.55;2.53;;;22.60;66.20;;;;;;4970171;28;20028;-59
2022/09/15 11:54:50;;;;;;;6.75;2.35;;;22.60;66.20;;;;;;4983212;28;20039;-59
2022/09/15 11:57:22;;;;;;;6.65;2.00;;;22.60;65.80;;;;;;4965852;28;20049;-59
2022/09/15 11:59:52;;;;;;;7.20;2.25;;;22.70;66.00;;;;;;4967809;28;20043;-59
2022/09/15 12:02:31;;;;;;;5.80;2.08;;;22.70;66.00;;;;;;4983009;28;20034;-58
2022/09/15 12:05:23;;;;;;;6.40;2.40;;;22.70;65.80;;;;;;4964226;28;20542;-59
2022/09/15 12:08:08;;;;;;;6.07;2.05;;;22.70;65.70;;;;;;4982914;28;20034;-58
2022/09/15 12:10:39;;;;;;;4.70;2.00;;;22.80;65.80;;;;;;5021972;28;20060;-59
2022/09/15 12:13:04;;;;;;;6.28;2.33;;;22.80;65.60;;;;;;5027118;28;20493;-59
2022/09/15 12:15:30;;;;;;;6.28;2.25;;;22.90;65.50;;;;;;5025151;28;20083;-59
2022/09/15 12:17:56;;;;;;;7.78;2.75;;;22.90;65.50;;;;;;5044720;28;20031;-59
2022/09/15 12:20:32;;;;;;;6.13;2.28;;;22.90;65.30;;;;;;5043105;28;20525;-59
2022/09/15 12:23:19;;;;;;;6.72;2.25;;;23.00;65.30;;;;;;5025493;28;20090;-59
2022/09/15 12:26:04;;;;;;;6.65;2.20;;;23.00;65.10;;;;;;5031042;28;20061;-59
2022/09/15 12:28:56;;;;;;;5.88;2.25;;;23.10;64.80;;;;;;5028683;28;20037;-59
2022/09/15 12:31:27;;;;;;;7.95;2.42;;;23.10;64.90;;;;;;5042952;28;20402;-59
2022/09/15 12:33:58;;;;;;;6.50;2.25;;;23.10;64.80;;;;;;5042549;28;20131;-59
2022/09/15 12:36:33;;;;;;;7.53;2.13;;;23.20;64.70;;;;;;5042408;28;20061;-59
2022/09/15 12:39:00;;;;;;;5.15;2.30;;;23.20;64.60;;;;;;5025847;28;20056;-59
2022/09/15 12:41:25;;;;;;;5.55;2.40;;;23.20;64.60;;;;;;5011711;28;20037;-59
2022/09/15 12:43:56;;;;;;;7.35;2.60;;;23.20;64.30;;;;;;5024442;28;20547;-59
2022/09/15 12:46:22;;;;;;;4.53;2.00;;;23.20;64.10;;;;;;5026718;28;20162;-59
2022/09/15 12:48:47;;;;;;;7.88;2.33;;;23.30;63.90;;;;;;5043007;28;20111;-59
2022/09/15 12:51:21;;;;;;;6.63;1.98;;;23.30;63.90;;;;;;5043613;28;20056;-59
2022/09/15 12:53:52;;;;;;;6.13;2.10;;;23.40;63.90;;;;;;5042329;28;20111;-59
2022/09/15 12:56:25;;;;;;;7.00;2.45;;;23.40;63.80;;;;;;5042119;28;20573;-59
2022/09/15 12:58:51;;;;;;;6.20;2.22;;;23.50;63.70;;;;;;5025999;28;20063;-59
2022/09/15 13:01:25;;;;;;;6.57;2.30;;;23.50;63.50;;;;;;5028632;28;20045;-59
2022/09/15 13:04:10;;;;;;;6.88;2.65;;;23.50;63.40;;;;;;5044517;28;20032;-59
2022/09/15 13:06:36;;;;;;;6.60;2.30;;;23.50;63.00;;;;;;5042337;28;20115;-59